sensor_id;sensor_type;location;lat;lon;timestamp;pressure;altitude;pressure_sealevel;temperature;humidity
73974;BME280;62336;-26.094;27.994;2023-02-14T03:37:54;84803.81;;;30.25;33.56
73974;BME280;62336;-26.094;27.994;2023-02-14T03:40:19;84808.25;;;30.24;33.32
73974;BME280;62336;-26.094;27.994;2023-02-14T03:42:43;84809.64;;;29.87;33.46
73974;BME280;62336;-26.094;27.994;2023-02-14T03:45:11;84808.30;;;29.93;33.08
73974;BME280;62336;-26.094;27.994;2023-02-14T03:47:34;84808.56;;;29.97;32.95
73974;BME280;62336;-26.094;27.994;2023-02-14T03:50:04;84813.45;;;29.79;33.76
73974;BME280;62336;-26.094;27.994;2023-02-14T03:52:27;84819.32;;;30.19;33.35
73974;BME280;62336;-26.094;27.994;2023-02-14T03:54:54;84820.01;;;29.93;33.38
73974;BME280;62336;-26.094;27.994;2023-02-14T03:57:20;84819.93;;;30.47;33.18
73974;BME280;62336;-26.094;27.994;2023-02-14T03:59:43;84814.76;;;29.83;33.54
73974;BME280;62336;-26.094;27.994;2023-02-14T04:02:10;84815.16;;;29.90;33.30
73974;BME280;62336;-26.094;27.994;2023-02-14T04:04:35;84811.69;;;29.90;33.38
73974;BME280;62336;-26.094;27.994;2023-02-14T04:06:59;84813.19;;;30.70;32.17
73974;BME280;62336;-26.094;27.994;2023-02-14T04:09:25;84807.72;;;30.38;32.82
73974;BME280;62336;-26.094;27.994;2023-02-14T04:11:50;84804.52;;;30.23;33.31
73974;BME280;62336;-26.094;27.994;2023-02-14T04:14:16;84809.31;;;29.85;33.35
73974;BME280;62336;-26.094;27.994;2023-02-14T04:16:42;84814.70;;;29.77;33.31
73974;BME280;62336;-26.094;27.994;2023-02-14T04:19:08;84822.87;;;29.53;33.16
73974;BME280;62336;-26.094;27.994;2023-02-14T04:21:33;84824.55;;;29.96;32.82
73974;BME280;62336;-26.094;27.994;2023-02-14T04:23:59;84830.39;;;29.81;33.01
73974;BME280;62336;-26.094;27.994;2023-02-14T04:26:24;84832.66;;;30.11;32.42
73974;BME280;62336;-26.094;27.994;2023-02-14T04:28:50;84833.86;;;29.83;32.91
73974;BME280;62336;-26.094;27.994;2023-02-14T04:31:16;84830.54;;;30.13;32.93
73974;BME280;62336;-26.094;27.994;2023-02-14T04:33:42;84835.56;;;30.02;32.78
73974;BME280;62336;-26.094;27.994;2023-02-14T04:36:08;84831.73;;;30.22;32.38
73974;BME280;62336;-26.094;27.994;2023-02-14T04:38:33;84832.92;;;30.46;32.23
73974;BME280;62336;-26.094;27.994;2023-02-14T04:40:58;84833.02;;;29.98;32.95
73974;BME280;62336;-26.094;27.994;2023-02-14T04:43:23;84834.28;;;29.94;32.87
73974;BME280;62336;-26.094;27.994;2023-02-14T04:45:49;84835.53;;;30.14;32.45
73974;BME280;62336;-26.094;27.994;2023-02-14T04:48:15;84831.35;;;29.68;33.25
73974;BME280;62336;-26.094;27.994;2023-02-14T04:50:41;84839.06;;;29.75;32.79
73974;BME280;62336;-26.094;27.994;2023-02-14T04:53:07;84841.90;;;29.96;32.71
73974;BME280;62336;-26.094;27.994;2023-02-14T04:55:32;84845.80;;;29.97;32.44
73974;BME280;62336;-26.094;27.994;2023-02-14T04:57:58;84842.29;;;30.16;32.33
73974;BME280;62336;-26.094;27.994;2023-02-14T05:00:24;84846.67;;;30.23;32.67
73974;BME280;62336;-26.094;27.994;2023-02-14T05:02:49;84853.01;;;29.73;32.76
73974;BME280;62336;-26.094;27.994;2023-02-14T05:05:15;84850.67;;;29.91;32.29
73974;BME280;62336;-26.094;27.994;2023-02-14T05:07:41;84851.56;;;30.15;32.48
73974;BME280;62336;-26.094;27.994;2023-02-14T05:10:08;84848.80;;;29.70;32.80
73974;BME280;62336;-26.094;27.994;2023-02-14T05:12:33;84849.34;;;29.69;32.60
73974;BME280;62336;-26.094;27.994;2023-02-14T05:14:59;84850.33;;;29.86;32.62
73974;BME280;62336;-26.094;27.994;2023-02-14T05:17:24;84849.99;;;29.55;33.08
73974;BME280;62336;-26.094;27.994;2023-02-14T05:19:50;84852.56;;;29.62;32.81
73974;BME280;62336;-26.094;27.994;2023-02-14T05:22:16;84853.83;;;30.29;32.34
73974;BME280;62336;-26.094;27.994;2023-02-14T05:24:42;84856.87;;;30.15;32.06
73974;BME280;62336;-26.094;27.994;2023-02-14T05:27:08;84856.14;;;30.17;32.42
73974;BME280;62336;-26.094;27.994;2023-02-14T05:29:34;84852.15;;;30.22;32.19
73974;BME280;62336;-26.094;27.994;2023-02-14T05:31:59;84853.01;;;30.23;32.46
73974;BME280;62336;-26.094;27.994;2023-02-14T05:34:26;84853.27;;;30.56;32.12
73974;BME280;62336;-26.094;27.994;2023-02-14T05:36:51;84850.94;;;30.37;32.52
73974;BME280;62336;-26.094;27.994;2023-02-14T05:39:16;84849.96;;;29.92;32.87
73974;BME280;62336;-26.094;27.994;2023-02-14T05:41:42;84854.81;;;30.01;32.62
73974;BME280;62336;-26.094;27.994;2023-02-14T05:44:07;84854.18;;;30.35;32.23
73974;BME280;62336;-26.094;27.994;2023-02-14T05:46:33;84856.32;;;30.11;32.69
73974;BME280;62336;-26.094;27.994;2023-02-14T05:48:58;84858.20;;;30.76;31.63
73974;BME280;62336;-26.094;27.994;2023-02-14T05:51:25;84862.74;;;30.64;31.80
73974;BME280;62336;-26.094;27.994;2023-02-14T05:53:50;84863.49;;;30.72;31.47
73974;BME280;62336;-26.094;27.994;2023-02-14T05:56:16;84865.62;;;30.97;31.25
73974;BME280;62336;-26.094;27.994;2023-02-14T05:58:43;84865.32;;;30.67;31.67
73974;BME280;62336;-26.094;27.994;2023-02-14T06:01:07;84870.68;;;30.79;31.57
73974;BME280;62336;-26.094;27.994;2023-02-14T06:03:33;84870.74;;;31.09;30.81
73974;BME280;62336;-26.094;27.994;2023-02-14T06:05:59;84870.18;;;30.92;30.84
73974;BME280;62336;-26.094;27.994;2023-02-14T06:08:24;84870.30;;;31.09;30.55
73974;BME280;62336;-26.094;27.994;2023-02-14T06:10:50;84871.89;;;30.61;31.05
73974;BME280;62336;-26.094;27.994;2023-02-14T06:13:16;84877.48;;;31.53;30.41
73974;BME280;62336;-26.094;27.994;2023-02-14T06:15:42;84874.86;;;31.12;30.79
73974;BME280;62336;-26.094;27.994;2023-02-14T06:18:09;84875.58;;;31.54;30.52
73974;BME280;62336;-26.094;27.994;2023-02-14T06:20:34;84875.65;;;31.43;30.85
73974;BME280;62336;-26.094;27.994;2023-02-14T06:23:00;84872.89;;;31.64;30.72
73974;BME280;62336;-26.094;27.994;2023-02-14T06:25:26;84870.69;;;31.73;30.73
73974;BME280;62336;-26.094;27.994;2023-02-14T06:27:54;84870.00;;;31.69;30.23
73974;BME280;62336;-26.094;27.994;2023-02-14T06:30:17;84869.88;;;32.37;29.22
73974;BME280;62336;-26.094;27.994;2023-02-14T06:32:42;84869.54;;;31.70;29.41
73974;BME280;62336;-26.094;27.994;2023-02-14T06:35:08;84866.67;;;31.14;30.31
73974;BME280;62336;-26.094;27.994;2023-02-14T06:37:34;84864.25;;;31.40;30.53
73974;BME280;62336;-26.094;27.994;2023-02-14T06:40:00;84862.97;;;31.50;30.53
73974;BME280;62336;-26.094;27.994;2023-02-14T06:42:26;84867.39;;;31.67;29.95
73974;BME280;62336;-26.094;27.994;2023-02-14T06:44:51;84862.35;;;31.98;29.60
73974;BME280;62336;-26.094;27.994;2023-02-14T06:47:17;84863.86;;;32.28;29.75
73974;BME280;62336;-26.094;27.994;2023-02-14T06:49:43;84862.13;;;32.01;29.45
73974;BME280;62336;-26.094;27.994;2023-02-14T06:52:09;84858.14;;;32.02;29.64
73974;BME280;62336;-26.094;27.994;2023-02-14T06:54:34;84860.26;;;32.77;29.20
73974;BME280;62336;-26.094;27.994;2023-02-14T06:56:59;84857.23;;;32.57;28.88
73974;BME280;62336;-26.094;27.994;2023-02-14T06:59:25;84856.26;;;32.39;29.84
73974;BME280;62336;-26.094;27.994;2023-02-14T07:01:50;84853.61;;;32.07;29.53
73974;BME280;62336;-26.094;27.994;2023-02-14T07:04:17;84850.77;;;32.43;29.10
73974;BME280;62336;-26.094;27.994;2023-02-14T07:06:42;84850.13;;;31.66;29.36
73974;BME280;62336;-26.094;27.994;2023-02-14T07:09:07;84848.44;;;31.61;29.58
73974;BME280;62336;-26.094;27.994;2023-02-14T07:11:33;84844.13;;;30.63;30.90
73974;BME280;62336;-26.094;27.994;2023-02-14T07:13:59;84845.97;;;31.84;29.99
73974;BME280;62336;-26.094;27.994;2023-02-14T07:16:25;84839.13;;;31.50;29.99
73974;BME280;62336;-26.094;27.994;2023-02-14T07:18:51;84839.68;;;31.87;29.63
73974;BME280;62336;-26.094;27.994;2023-02-14T07:21:16;84836.78;;;31.72;29.81
73974;BME280;62336;-26.094;27.994;2023-02-14T07:23:42;84835.36;;;32.10;29.61
73974;BME280;62336;-26.094;27.994;2023-02-14T07:26:08;84838.87;;;32.18;29.45
73974;BME280;62336;-26.094;27.994;2023-02-14T07:28:34;84835.75;;;32.54;29.75
73974;BME280;62336;-26.094;27.994;2023-02-14T07:31:00;84833.65;;;32.31;29.26
73974;BME280;62336;-26.094;27.994;2023-02-14T07:33:26;84834.24;;;32.55;28.47
73974;BME280;62336;-26.094;27.994;2023-02-14T07:35:51;84837.31;;;32.31;29.19
73974;BME280;62336;-26.094;27.994;2023-02-14T07:38:18;84835.20;;;31.94;29.43
73974;BME280;62336;-26.094;27.994;2023-02-14T07:40:42;84840.74;;;32.49;29.35
73974;BME280;62336;-26.094;27.994;2023-02-14T07:43:08;84839.31;;;32.68;28.66
73974;BME280;62336;-26.094;27.994;2023-02-14T07:45:34;84834.66;;;32.25;29.37
73974;BME280;62336;-26.094;27.994;2023-02-14T07:47:59;84835.41;;;32.48;29.20
73974;BME280;62336;-26.094;27.994;2023-02-14T07:50:26;84830.86;;;32.16;29.43
73974;BME280;62336;-26.094;27.994;2023-02-14T07:52:51;84833.28;;;32.91;29.31
73974;BME280;62336;-26.094;27.994;2023-02-14T07:55:17;84833.07;;;32.52;29.10
73974;BME280;62336;-26.094;27.994;2023-02-14T07:57:43;84832.67;;;32.35;30.03
73974;BME280;62336;-26.094;27.994;2023-02-14T08:00:09;84834.79;;;32.11;29.43
73974;BME280;62336;-26.094;27.994;2023-02-14T08:02:35;84829.68;;;32.54;29.10
73974;BME280;62336;-26.094;27.994;2023-02-14T08:05:00;84829.03;;;32.82;28.80
73974;BME280;62336;-26.094;27.994;2023-02-14T08:07:27;84831.00;;;32.53;29.03
73974;BME280;62336;-26.094;27.994;2023-02-14T08:09:52;84832.05;;;32.31;29.33
73974;BME280;62336;-26.094;27.994;2023-02-14T08:12:18;84827.34;;;32.67;29.10
73974;BME280;62336;-26.094;27.994;2023-02-14T08:14:44;84824.02;;;32.65;28.74
73974;BME280;62336;-26.094;27.994;2023-02-14T08:17:10;84823.99;;;32.94;28.76
73974;BME280;62336;-26.094;27.994;2023-02-14T08:19:36;84821.89;;;32.83;29.11
73974;BME280;62336;-26.094;27.994;2023-02-14T08:22:01;84814.80;;;32.91;29.27
73974;BME280;62336;-26.094;27.994;2023-02-14T08:24:28;84820.94;;;33.08;28.39
73974;BME280;62336;-26.094;27.994;2023-02-14T08:26:53;84821.06;;;32.92;28.48
73974;BME280;62336;-26.094;27.994;2023-02-14T08:29:19;84820.63;;;33.04;28.55
73974;BME280;62336;-26.094;27.994;2023-02-14T08:31:44;84818.75;;;33.27;28.48
73974;BME280;62336;-26.094;27.994;2023-02-14T08:34:10;84819.40;;;33.07;28.80
73974;BME280;62336;-26.094;27.994;2023-02-14T08:36:36;84819.22;;;33.04;28.77
73974;BME280;62336;-26.094;27.994;2023-02-14T08:39:03;84812.77;;;32.80;28.38
73974;BME280;62336;-26.094;27.994;2023-02-14T08:41:28;84812.87;;;33.16;28.35
73974;BME280;62336;-26.094;27.994;2023-02-14T08:43:59;84812.20;;;33.15;28.97
73974;BME280;62336;-26.094;27.994;2023-02-14T08:46:19;84812.30;;;33.41;28.00
73974;BME280;62336;-26.094;27.994;2023-02-14T08:48:45;84810.27;;;33.52;27.80
73974;BME280;62336;-26.094;27.994;2023-02-14T08:51:13;84808.63;;;33.11;28.60
73974;BME280;62336;-26.094;27.994;2023-02-14T08:53:37;84807.79;;;32.88;28.87
73974;BME280;62336;-26.094;27.994;2023-02-14T08:56:04;84803.73;;;32.62;28.26
73974;BME280;62336;-26.094;27.994;2023-02-14T08:58:29;84803.83;;;32.70;28.55
73974;BME280;62336;-26.094;27.994;2023-02-14T09:00:54;84800.74;;;32.90;28.32
73974;BME280;62336;-26.094;27.994;2023-02-14T09:03:20;84793.70;;;33.06;28.83
73974;BME280;62336;-26.094;27.994;2023-02-14T09:05:46;84790.06;;;32.93;28.37
73974;BME280;62336;-26.094;27.994;2023-02-14T09:08:12;84790.45;;;33.67;28.52
73974;BME280;62336;-26.094;27.994;2023-02-14T09:10:37;84788.25;;;33.38;27.30
73974;BME280;62336;-26.094;27.994;2023-02-14T09:13:04;84782.98;;;33.46;27.74
73974;BME280;62336;-26.094;27.994;2023-02-14T09:15:30;84779.40;;;33.64;27.47
73974;BME280;62336;-26.094;27.994;2023-02-14T09:17:55;84775.59;;;33.67;27.68
73974;BME280;62336;-26.094;27.994;2023-02-14T09:20:21;84773.63;;;33.97;27.29
73974;BME280;62336;-26.094;27.994;2023-02-14T09:22:47;84772.10;;;33.95;27.01
73974;BME280;62336;-26.094;27.994;2023-02-14T09:25:13;84771.01;;;34.46;26.78
73974;BME280;62336;-26.094;27.994;2023-02-14T09:27:39;84764.68;;;34.51;26.64
73974;BME280;62336;-26.094;27.994;2023-02-14T09:30:05;84759.62;;;34.66;27.08
73974;BME280;62336;-26.094;27.994;2023-02-14T09:32:30;84755.50;;;35.05;26.27
73974;BME280;62336;-26.094;27.994;2023-02-14T09:34:56;84750.91;;;34.14;26.48
73974;BME280;62336;-26.094;27.994;2023-02-14T09:37:22;84748.92;;;34.43;26.09
73974;BME280;62336;-26.094;27.994;2023-02-14T09:39:47;84750.84;;;34.80;25.41
73974;BME280;62336;-26.094;27.994;2023-02-14T09:44:42;84749.43;;;34.93;25.92
73974;BME280;62336;-26.094;27.994;2023-02-14T09:47:14;84745.52;;;34.84;26.05
73974;BME280;62336;-26.094;27.994;2023-02-14T09:49:34;84745.56;;;34.75;25.52
73974;BME280;62336;-26.094;27.994;2023-02-14T09:51:57;84744.12;;;35.34;26.21
73974;BME280;62336;-26.094;27.994;2023-02-14T09:54:27;84740.24;;;34.86;26.51
73974;BME280;62336;-26.094;27.994;2023-02-14T09:56:51;84739.78;;;34.42;25.82
73974;BME280;62336;-26.094;27.994;2023-02-14T09:59:18;84740.44;;;34.71;26.21
73974;BME280;62336;-26.094;27.994;2023-02-14T10:01:43;84741.72;;;34.66;26.41
73974;BME280;62336;-26.094;27.994;2023-02-14T10:04:15;84739.87;;;35.12;25.31
73974;BME280;62336;-26.094;27.994;2023-02-14T10:06:41;84736.97;;;34.21;26.06
73974;BME280;62336;-26.094;27.994;2023-02-14T10:09:00;84737.70;;;34.53;25.89
73974;BME280;62336;-26.094;27.994;2023-02-14T10:11:23;84731.62;;;35.16;25.57
73974;BME280;62336;-26.094;27.994;2023-02-14T10:16:24;84733.12;;;32.45;28.95
73974;BME280;62336;-26.094;27.994;2023-02-14T10:18:48;84730.45;;;32.54;28.70
73974;BME280;62336;-26.094;27.994;2023-02-14T10:21:15;84725.81;;;33.44;27.81
73974;BME280;62336;-26.094;27.994;2023-02-14T10:23:40;84717.45;;;33.56;27.09
73974;BME280;62336;-26.094;27.994;2023-02-14T10:26:04;84715.02;;;34.06;26.77
73974;BME280;62336;-26.094;27.994;2023-02-14T10:28:33;84715.08;;;34.14;26.04
73974;BME280;62336;-26.094;27.994;2023-02-14T10:31:04;84711.17;;;34.52;26.10
73974;BME280;62336;-26.094;27.994;2023-02-14T10:33:21;84707.95;;;34.69;25.91
73974;BME280;62336;-26.094;27.994;2023-02-14T10:35:47;84707.84;;;35.08;25.78
73974;BME280;62336;-26.094;27.994;2023-02-14T10:38:25;84706.57;;;35.32;25.81
73974;BME280;62336;-26.094;27.994;2023-02-14T10:40:51;84705.06;;;35.68;25.30
73974;BME280;62336;-26.094;27.994;2023-02-14T10:43:13;84698.69;;;35.71;24.44
73974;BME280;62336;-26.094;27.994;2023-02-14T10:45:33;84697.99;;;35.34;24.79
73974;BME280;62336;-26.094;27.994;2023-02-14T10:48:00;84691.08;;;35.60;24.85
73974;BME280;62336;-26.094;27.994;2023-02-14T10:50:27;84688.12;;;35.48;25.38
73974;BME280;62336;-26.094;27.994;2023-02-14T10:52:53;84688.10;;;35.43;24.53
73974;BME280;62336;-26.094;27.994;2023-02-14T10:55:18;84683.04;;;34.92;25.27
73974;BME280;62336;-26.094;27.994;2023-02-14T10:57:43;84679.69;;;35.17;25.37
73974;BME280;62336;-26.094;27.994;2023-02-14T11:00:07;84680.04;;;35.25;25.26
73974;BME280;62336;-26.094;27.994;2023-02-14T11:02:33;84677.54;;;35.76;25.14
73974;BME280;62336;-26.094;27.994;2023-02-14T11:05:03;84671.47;;;35.91;24.52
73974;BME280;62336;-26.094;27.994;2023-02-14T11:07:21;84672.35;;;36.14;24.46
73974;BME280;62336;-26.094;27.994;2023-02-14T11:09:47;84666.65;;;35.84;24.67
73974;BME280;62336;-26.094;27.994;2023-02-14T11:14:39;84661.01;;;35.71;24.36
73974;BME280;62336;-26.094;27.994;2023-02-14T11:19:32;84657.51;;;36.36;24.02
73974;BME280;62336;-26.094;27.994;2023-02-14T11:21:57;84654.37;;;35.95;25.40
73974;BME280;62336;-26.094;27.994;2023-02-14T11:24:27;84649.16;;;35.81;24.84
73974;BME280;62336;-26.094;27.994;2023-02-14T11:26:48;84646.04;;;36.15;24.60
73974;BME280;62336;-26.094;27.994;2023-02-14T11:29:19;84641.80;;;36.18;24.77
73974;BME280;62336;-26.094;27.994;2023-02-14T11:31:40;84637.30;;;35.87;24.81
73974;BME280;62336;-26.094;27.994;2023-02-14T11:34:05;84638.92;;;36.22;23.78
73974;BME280;62336;-26.094;27.994;2023-02-14T11:36:31;84630.90;;;36.00;23.63
73974;BME280;62336;-26.094;27.994;2023-02-14T11:39:02;84634.87;;;35.96;23.74
73974;BME280;62336;-26.094;27.994;2023-02-14T11:41:22;84633.39;;;36.44;23.90
73974;BME280;62336;-26.094;27.994;2023-02-14T11:43:48;84632.32;;;35.59;24.10
73974;BME280;62336;-26.094;27.994;2023-02-14T11:46:15;84629.64;;;36.08;23.87
73974;BME280;62336;-26.094;27.994;2023-02-14T11:51:08;84627.75;;;36.09;24.40
73974;BME280;62336;-26.094;27.994;2023-02-14T11:53:39;84624.66;;;35.64;25.83
73974;BME280;62336;-26.094;27.994;2023-02-14T11:55:58;84619.52;;;35.05;24.53
73974;BME280;62336;-26.094;27.994;2023-02-14T11:58:31;84614.78;;;35.31;25.35
73974;BME280;62336;-26.094;27.994;2023-02-14T12:00:51;84611.93;;;35.61;24.45
73974;BME280;62336;-26.094;27.994;2023-02-14T12:03:18;84609.39;;;35.44;24.40
73974;BME280;62336;-26.094;27.994;2023-02-14T12:05:45;84611.30;;;35.54;24.53
73974;BME280;62336;-26.094;27.994;2023-02-14T12:08:07;84607.71;;;36.01;24.28
73974;BME280;62336;-26.094;27.994;2023-02-14T12:10:33;84605.91;;;35.45;24.61
73974;BME280;62336;-26.094;27.994;2023-02-14T12:13:23;84604.96;;;35.86;24.89
73974;BME280;62336;-26.094;27.994;2023-02-14T12:15:52;84602.32;;;35.87;24.10
73974;BME280;62336;-26.094;27.994;2023-02-14T12:20:43;84592.49;;;35.76;24.52
73974;BME280;62336;-26.094;27.994;2023-02-14T12:23:06;84585.72;;;35.51;24.58
73974;BME280;62336;-26.094;27.994;2023-02-14T12:25:35;84581.47;;;35.89;24.91
73974;BME280;62336;-26.094;27.994;2023-02-14T12:27:57;84579.82;;;35.94;24.94
73974;BME280;62336;-26.094;27.994;2023-02-14T12:30:21;84575.31;;;35.69;25.33
73974;BME280;62336;-26.094;27.994;2023-02-14T12:33:00;84574.39;;;35.62;25.49
73974;BME280;62336;-26.094;27.994;2023-02-14T12:35:15;84570.26;;;35.62;25.25
73974;BME280;62336;-26.094;27.994;2023-02-14T12:37:49;84566.19;;;34.92;25.84
73974;BME280;62336;-26.094;27.994;2023-02-14T12:40:11;84566.88;;;35.10;25.58
73974;BME280;62336;-26.094;27.994;2023-02-14T12:42:36;84562.49;;;35.28;25.76
73974;BME280;62336;-26.094;27.994;2023-02-14T12:45:01;84564.24;;;35.11;25.41
73974;BME280;62336;-26.094;27.994;2023-02-14T12:47:25;84563.19;;;35.42;26.10
73974;BME280;62336;-26.094;27.994;2023-02-14T12:49:56;84559.24;;;34.95;26.24
73974;BME280;62336;-26.094;27.994;2023-02-14T12:54:47;84551.48;;;34.83;26.08
73974;BME280;62336;-26.094;27.994;2023-02-14T12:57:14;84549.99;;;35.43;25.61
73974;BME280;62336;-26.094;27.994;2023-02-14T12:59:35;84544.02;;;35.44;25.69
73974;BME280;62336;-26.094;27.994;2023-02-14T13:04:34;84535.83;;;36.02;25.65
73974;BME280;62336;-26.094;27.994;2023-02-14T13:07:17;84535.13;;;35.95;25.00
73974;BME280;62336;-26.094;27.994;2023-02-14T13:09:26;84536.00;;;36.17;24.02
73974;BME280;62336;-26.094;27.994;2023-02-14T13:11:48;84532.56;;;35.85;24.93
73974;BME280;62336;-26.094;27.994;2023-02-14T13:14:14;84529.87;;;35.85;24.56
73974;BME280;62336;-26.094;27.994;2023-02-14T13:16:36;84528.85;;;36.14;24.64
73974;BME280;62336;-26.094;27.994;2023-02-14T13:19:00;84525.20;;;36.37;24.58
73974;BME280;62336;-26.094;27.994;2023-02-14T13:21:23;84519.94;;;36.41;24.37
73974;BME280;62336;-26.094;27.994;2023-02-14T13:23:49;84516.01;;;36.69;23.15
73974;BME280;62336;-26.094;27.994;2023-02-14T13:26:16;84509.23;;;36.16;24.39
73974;BME280;62336;-26.094;27.994;2023-02-14T13:28:46;84503.71;;;36.51;24.14
73974;BME280;62336;-26.094;27.994;2023-02-14T13:31:06;84499.21;;;36.40;24.34
73974;BME280;62336;-26.094;27.994;2023-02-14T13:33:34;84499.82;;;36.77;23.82
73974;BME280;62336;-26.094;27.994;2023-02-14T13:35:59;84499.09;;;36.85;24.11
73974;BME280;62336;-26.094;27.994;2023-02-14T13:38:23;84498.25;;;37.12;23.79
73974;BME280;62336;-26.094;27.994;2023-02-14T13:40:48;84498.56;;;37.01;23.75
73974;BME280;62336;-26.094;27.994;2023-02-14T13:45:53;84495.61;;;36.26;23.49
73974;BME280;62336;-26.094;27.994;2023-02-14T13:48:09;84494.20;;;36.27;23.69
73974;BME280;62336;-26.094;27.994;2023-02-14T13:50:32;84494.39;;;35.58;24.36
73974;BME280;62336;-26.094;27.994;2023-02-14T13:52:58;84487.51;;;36.46;23.72
73974;BME280;62336;-26.094;27.994;2023-02-14T13:55:27;84486.11;;;36.80;23.60
73974;BME280;62336;-26.094;27.994;2023-02-14T14:02:45;84476.98;;;37.29;23.40
73974;BME280;62336;-26.094;27.994;2023-02-14T14:07:33;84473.21;;;37.30;23.13
73974;BME280;62336;-26.094;27.994;2023-02-14T14:10:00;84473.31;;;37.19;22.52
73974;BME280;62336;-26.094;27.994;2023-02-14T14:12:37;84474.63;;;37.01;23.08
73974;BME280;62336;-26.094;27.994;2023-02-14T14:17:21;84469.88;;;37.45;22.61
73974;BME280;62336;-26.094;27.994;2023-02-14T14:19:41;84472.70;;;36.90;23.12
73974;BME280;62336;-26.094;27.994;2023-02-14T14:22:08;84469.51;;;36.51;23.57
73974;BME280;62336;-26.094;27.994;2023-02-14T14:24:32;84467.02;;;36.21;23.50
73974;BME280;62336;-26.094;27.994;2023-02-14T14:27:00;84468.28;;;36.33;23.76
73974;BME280;62336;-26.094;27.994;2023-02-14T14:29:26;84470.36;;;36.12;23.80
73974;BME280;62336;-26.094;27.994;2023-02-14T14:31:50;84468.10;;;36.36;23.48
73974;BME280;62336;-26.094;27.994;2023-02-14T14:34:18;84466.49;;;36.48;23.63
73974;BME280;62336;-26.094;27.994;2023-02-14T14:36:42;84463.48;;;36.36;23.71
73974;BME280;62336;-26.094;27.994;2023-02-14T14:39:09;84461.96;;;36.25;23.88
73974;BME280;62336;-26.094;27.994;2023-02-14T14:41:33;84459.35;;;36.46;23.82
73974;BME280;62336;-26.094;27.994;2023-02-14T14:43:59;84458.60;;;36.48;23.34
73974;BME280;62336;-26.094;27.994;2023-02-14T14:46:24;84460.18;;;36.86;23.05
73974;BME280;62336;-26.094;27.994;2023-02-14T14:48:51;84460.58;;;36.64;23.51
73974;BME280;62336;-26.094;27.994;2023-02-14T14:51:22;84460.37;;;36.96;24.06
73974;BME280;62336;-26.094;27.994;2023-02-14T14:53:44;84456.95;;;36.30;24.50
73974;BME280;62336;-26.094;27.994;2023-02-14T14:56:11;84452.58;;;36.96;24.31
73974;BME280;62336;-26.094;27.994;2023-02-14T14:58:37;84451.26;;;36.83;24.44
73974;BME280;62336;-26.094;27.994;2023-02-14T15:00:59;84450.11;;;37.14;24.18
73974;BME280;62336;-26.094;27.994;2023-02-14T15:03:26;84452.71;;;36.70;24.59
73974;BME280;62336;-26.094;27.994;2023-02-14T15:05:50;84456.88;;;36.22;24.96
73974;BME280;62336;-26.094;27.994;2023-02-14T15:08:21;84458.65;;;36.85;24.69
73974;BME280;62336;-26.094;27.994;2023-02-14T15:10:42;84459.15;;;36.92;25.06
73974;BME280;62336;-26.094;27.994;2023-02-14T15:13:11;84465.03;;;36.39;25.29
73974;BME280;62336;-26.094;27.994;2023-02-14T15:15:33;84465.82;;;36.25;25.21
73974;BME280;62336;-26.094;27.994;2023-02-14T15:17:58;84467.78;;;36.33;25.18
73974;BME280;62336;-26.094;27.994;2023-02-14T15:20:24;84471.54;;;36.43;25.08
73974;BME280;62336;-26.094;27.994;2023-02-14T15:22:51;84472.72;;;36.32;25.12
73974;BME280;62336;-26.094;27.994;2023-02-14T15:25:19;84474.53;;;36.67;24.97
73974;BME280;62336;-26.094;27.994;2023-02-14T15:27:42;84476.83;;;36.62;25.06
73974;BME280;62336;-26.094;27.994;2023-02-14T15:32:35;84481.37;;;36.78;25.05
73974;BME280;62336;-26.094;27.994;2023-02-14T15:35:01;84483.74;;;36.74;24.77
73974;BME280;62336;-26.094;27.994;2023-02-14T15:37:25;84484.79;;;36.63;25.50
73974;BME280;62336;-26.094;27.994;2023-02-14T15:39:52;84486.41;;;36.52;25.15
73974;BME280;62336;-26.094;27.994;2023-02-14T15:42:21;84487.89;;;36.76;25.51
73974;BME280;62336;-26.094;27.994;2023-02-14T15:44:41;84485.35;;;36.56;25.76
73974;BME280;62336;-26.094;27.994;2023-02-14T15:47:11;84487.29;;;36.45;25.86
73974;BME280;62336;-26.094;27.994;2023-02-14T15:49:35;84489.01;;;36.55;26.16
73974;BME280;62336;-26.094;27.994;2023-02-14T15:52:01;84497.75;;;36.16;25.87
73974;BME280;62336;-26.094;27.994;2023-02-14T15:54:32;84497.68;;;36.28;25.23
73974;BME280;62336;-26.094;27.994;2023-02-14T15:56:52;84500.65;;;36.01;25.30
73974;BME280;62336;-26.094;27.994;2023-02-14T15:59:19;84497.52;;;36.53;24.95
73974;BME280;62336;-26.094;27.994;2023-02-14T16:01:48;84499.07;;;36.68;24.81
73974;BME280;62336;-26.094;27.994;2023-02-14T16:04:07;84498.25;;;36.83;24.79
73974;BME280;62336;-26.094;27.994;2023-02-14T16:06:36;84501.08;;;37.18;24.80
73974;BME280;62336;-26.094;27.994;2023-02-14T16:08:59;84500.63;;;36.75;24.47
73974;BME280;62336;-26.094;27.994;2023-02-14T16:11:28;84502.64;;;36.64;25.21
73974;BME280;62336;-26.094;27.994;2023-02-14T16:13:50;84507.36;;;36.32;25.27
73974;BME280;62336;-26.094;27.994;2023-02-14T16:16:16;84506.64;;;36.51;24.52
73974;BME280;62336;-26.094;27.994;2023-02-14T16:18:44;84511.99;;;36.29;25.04
73974;BME280;62336;-26.094;27.994;2023-02-14T16:21:15;84518.54;;;36.08;25.12
73974;BME280;62336;-26.094;27.994;2023-02-14T16:23:33;84521.33;;;35.98;25.60
73974;BME280;62336;-26.094;27.994;2023-02-14T16:25:59;84522.02;;;35.99;25.32
73974;BME280;62336;-26.094;27.994;2023-02-14T16:28:28;84525.99;;;36.26;25.64
73974;BME280;62336;-26.094;27.994;2023-02-14T16:30:54;84525.96;;;36.27;25.98
73974;BME280;62336;-26.094;27.994;2023-02-14T16:33:20;84528.52;;;35.84;26.05
73974;BME280;62336;-26.094;27.994;2023-02-14T16:35:44;84530.77;;;36.13;25.79
73974;BME280;62336;-26.094;27.994;2023-02-14T16:38:13;84531.49;;;35.97;26.22
73974;BME280;62336;-26.094;27.994;2023-02-14T16:40:34;84531.80;;;35.77;25.66
73974;BME280;62336;-26.094;27.994;2023-02-14T16:42:59;84537.34;;;36.03;25.69